sensor_id;sensor_type;location;lat;lon;timestamp;pressure;altitude;pressure_sealevel;temperature;humidity
70370;BME280;57790;51.356;-2.906;2022-08-19T00:00:10;101420.13;;;21.42;74.46
70370;BME280;57790;51.356;-2.906;2022-08-19T00:03:12;101428.41;;;21.40;74.62
70370;BME280;57790;51.356;-2.906;2022-08-19T00:06:13;101428.47;;;21.33;75.10
70370;BME280;57790;51.356;-2.906;2022-08-19T00:09:15;101423.50;;;21.30;75.37
70370;BME280;57790;51.356;-2.906;2022-08-19T00:12:16;101417.72;;;21.27;75.99
70370;BME280;57790;51.356;-2.906;2022-08-19T00:15:19;101422.09;;;21.28;75.80
70370;BME280;57790;51.356;-2.906;2022-08-19T00:18:20;101425.81;;;21.27;75.60
70370;BME280;57790;51.356;-2.906;2022-08-19T00:21:22;101420.44;;;21.27;75.70
70370;BME280;57790;51.356;-2.906;2022-08-19T00:24:24;101425.81;;;21.27;75.58
70370;BME280;57790;51.356;-2.906;2022-08-19T00:27:24;101425.19;;;21.25;75.43
70370;BME280;57790;51.356;-2.906;2022-08-19T00:30:25;101414.19;;;21.20;75.24
70370;BME280;57790;51.356;-2.906;2022-08-19T00:33:27;101412.75;;;21.17;75.12
70370;BME280;57790;51.356;-2.906;2022-08-19T00:36:28;101433.94;;;21.14;75.29
70370;BME280;57790;51.356;-2.906;2022-08-19T00:39:29;101420.88;;;21.10;75.00
70370;BME280;57790;51.356;-2.906;2022-08-19T00:42:30;101422.75;;;21.10;74.96
70370;BME280;57790;51.356;-2.906;2022-08-19T00:45:30;101418.19;;;21.10;75.14
70370;BME280;57790;51.356;-2.906;2022-08-19T00:48:33;101418.19;;;21.10;75.14
70370;BME280;57790;51.356;-2.906;2022-08-19T00:51:33;101411.97;;;21.10;75.13
70370;BME280;57790;51.356;-2.906;2022-08-19T00:54:36;101415.47;;;21.10;75.27
70370;BME280;57790;51.356;-2.906;2022-08-19T00:57:40;101408.03;;;21.13;75.14
70370;BME280;57790;51.356;-2.906;2022-08-19T01:00:41;101415.47;;;21.10;75.18
70370;BME280;57790;51.356;-2.906;2022-08-19T01:03:42;101415.69;;;21.09;75.35
70370;BME280;57790;51.356;-2.906;2022-08-19T01:06:42;101413.88;;;21.03;74.86
70370;BME280;57790;51.356;-2.906;2022-08-19T01:09:43;101410.97;;;21.04;74.76
70370;BME280;57790;51.356;-2.906;2022-08-19T01:12:47;101410.34;;;21.02;74.78
70370;BME280;57790;51.356;-2.906;2022-08-19T01:15:55;101407.66;;;21.02;74.49
70370;BME280;57790;51.356;-2.906;2022-08-19T01:18:56;101414.31;;;21.00;74.41
70370;BME280;57790;51.356;-2.906;2022-08-19T01:22:08;101417.41;;;20.97;74.11
70370;BME280;57790;51.356;-2.906;2022-08-19T01:25:12;101417.63;;;20.95;73.95
70370;BME280;57790;51.356;-2.906;2022-08-19T01:28:23;101409.38;;;20.90;73.92
70370;BME280;57790;51.356;-2.906;2022-08-19T01:31:27;101409.38;;;20.90;73.60
70370;BME280;57790;51.356;-2.906;2022-08-19T01:34:30;101421.19;;;20.89;73.81
70370;BME280;57790;51.356;-2.906;2022-08-19T01:37:51;101422.84;;;20.90;73.69
70370;BME280;57790;51.356;-2.906;2022-08-19T01:40:52;101410.19;;;20.91;73.49
70370;BME280;57790;51.356;-2.906;2022-08-19T01:43:53;101415.81;;;20.89;73.43
70370;BME280;57790;51.356;-2.906;2022-08-19T01:46:54;101415.41;;;20.86;73.34
70370;BME280;57790;51.356;-2.906;2022-08-19T01:49:55;101423.91;;;20.83;73.34
70370;BME280;57790;51.356;-2.906;2022-08-19T01:52:58;101422.25;;;20.82;73.30
70370;BME280;57790;51.356;-2.906;2022-08-19T01:56:00;101427.63;;;20.82;73.48
70370;BME280;57790;51.356;-2.906;2022-08-19T01:59:14;101421.63;;;20.79;73.48
70370;BME280;57790;51.356;-2.906;2022-08-19T02:02:16;101418.13;;;20.79;73.66
70370;BME280;57790;51.356;-2.906;2022-08-19T02:05:16;101413.97;;;20.76;73.14
70370;BME280;57790;51.356;-2.906;2022-08-19T02:08:18;101417.72;;;20.75;73.59
70370;BME280;57790;51.356;-2.906;2022-08-19T02:11:30;101423.94;;;20.76;73.68
70370;BME280;57790;51.356;-2.906;2022-08-19T02:14:36;101432.44;;;20.73;73.58
70370;BME280;57790;51.356;-2.906;2022-08-19T02:17:36;101433.72;;;20.70;73.79
70370;BME280;57790;51.356;-2.906;2022-08-19T02:20:38;101438.66;;;20.67;73.86
70370;BME280;57790;51.356;-2.906;2022-08-19T02:23:38;101429.38;;;20.63;73.81
70370;BME280;57790;51.356;-2.906;2022-08-19T02:26:39;101438.91;;;20.59;73.72
70370;BME280;57790;51.356;-2.906;2022-08-19T02:29:39;101433.75;;;20.57;73.31
70370;BME280;57790;51.356;-2.906;2022-08-19T02:32:41;101441.81;;;20.57;72.84
70370;BME280;57790;51.356;-2.906;2022-08-19T02:35:46;101441.22;;;20.55;72.44
70370;BME280;57790;51.356;-2.906;2022-08-19T02:38:47;101437.06;;;20.53;71.94
70370;BME280;57790;51.356;-2.906;2022-08-19T02:41:47;101439.97;;;20.51;71.53
70370;BME280;57790;51.356;-2.906;2022-08-19T02:44:49;101445.78;;;20.48;71.12
70370;BME280;57790;51.356;-2.906;2022-08-19T02:47:50;101431.28;;;20.42;70.73
70370;BME280;57790;51.356;-2.906;2022-08-19T02:50:51;101427.31;;;20.38;70.69
70370;BME280;57790;51.356;-2.906;2022-08-19T02:53:55;101438.72;;;20.34;70.28
70370;BME280;57790;51.356;-2.906;2022-08-19T02:56:56;101451.56;;;20.32;70.22
70370;BME280;57790;51.356;-2.906;2022-08-19T02:59:58;101442.06;;;20.29;70.35
70370;BME280;57790;51.356;-2.906;2022-08-19T03:02:58;101444.34;;;20.26;70.42
70370;BME280;57790;51.356;-2.906;2022-08-19T03:06:06;101448.69;;;20.20;70.41
70370;BME280;57790;51.356;-2.906;2022-08-19T03:09:08;101455.31;;;20.17;69.94
70370;BME280;57790;51.356;-2.906;2022-08-19T03:12:09;101447.66;;;20.14;70.19
70370;BME280;57790;51.356;-2.906;2022-08-19T03:15:09;101453.25;;;20.13;70.36
70370;BME280;57790;51.356;-2.906;2022-08-19T03:18:10;101451.59;;;20.12;70.17
70370;BME280;57790;51.356;-2.906;2022-08-19T03:21:22;101463.81;;;20.08;70.04
70370;BME280;57790;51.356;-2.906;2022-08-19T03:24:24;101471.03;;;20.07;70.12
70370;BME280;57790;51.356;-2.906;2022-08-19T03:27:25;101467.75;;;20.05;70.58
70370;BME280;57790;51.356;-2.906;2022-08-19T03:30:25;101466.28;;;20.03;70.48
70370;BME280;57790;51.356;-2.906;2022-08-19T03:33:26;101471.69;;;20.03;70.47
70370;BME280;57790;51.356;-2.906;2022-08-19T03:36:27;101465.88;;;19.99;70.32
70370;BME280;57790;51.356;-2.906;2022-08-19T03:39:27;101473.13;;;19.99;70.48
70370;BME280;57790;51.356;-2.906;2022-08-19T03:42:28;101468.13;;;19.96;70.34
70370;BME280;57790;51.356;-2.906;2022-08-19T03:45:28;101476.03;;;19.97;70.38
70370;BME280;57790;51.356;-2.906;2022-08-19T03:48:29;101465.44;;;19.96;70.67
70370;BME280;57790;51.356;-2.906;2022-08-19T03:51:34;101479.31;;;19.92;70.27
70370;BME280;57790;51.356;-2.906;2022-08-19T03:54:35;101485.75;;;19.91;70.05
70370;BME280;57790;51.356;-2.906;2022-08-19T03:57:36;101483.88;;;19.92;70.34
70370;BME280;57790;51.356;-2.906;2022-08-19T04:00:36;101475.41;;;19.88;70.49
70370;BME280;57790;51.356;-2.906;2022-08-19T04:03:39;101477.25;;;19.88;70.46
70370;BME280;57790;51.356;-2.906;2022-08-19T04:06:40;101477.25;;;19.88;70.26
70370;BME280;57790;51.356;-2.906;2022-08-19T04:09:40;101488.66;;;19.83;70.17
70370;BME280;57790;51.356;-2.906;2022-08-19T04:12:41;101488.66;;;19.83;70.09
70370;BME280;57790;51.356;-2.906;2022-08-19T04:15:42;101489.03;;;19.80;69.60
70370;BME280;57790;51.356;-2.906;2022-08-19T04:18:43;101498.34;;;19.78;68.96
70370;BME280;57790;51.356;-2.906;2022-08-19T04:21:45;101497.94;;;19.74;68.56
70370;BME280;57790;51.356;-2.906;2022-08-19T04:24:46;101500.00;;;19.72;68.88
70370;BME280;57790;51.356;-2.906;2022-08-19T04:27:46;101503.13;;;19.69;68.91
70370;BME280;57790;51.356;-2.906;2022-08-19T04:30:52;101493.56;;;19.67;69.41
70370;BME280;57790;51.356;-2.906;2022-08-19T04:33:54;101501.22;;;19.63;69.15
70370;BME280;57790;51.356;-2.906;2022-08-19T04:36:58;101505.56;;;19.57;69.34
70370;BME280;57790;51.356;-2.906;2022-08-19T04:39:59;101521.06;;;19.55;69.32
70370;BME280;57790;51.356;-2.906;2022-08-19T04:43:18;101518.94;;;19.51;69.22
70370;BME280;57790;51.356;-2.906;2022-08-19T04:46:18;101527.63;;;19.46;68.91
70370;BME280;57790;51.356;-2.906;2022-08-19T04:49:21;101527.22;;;19.43;68.51
70370;BME280;57790;51.356;-2.906;2022-08-19T04:52:22;101538.53;;;19.38;68.60
70370;BME280;57790;51.356;-2.906;2022-08-19T04:55:23;101537.09;;;19.36;68.20
70370;BME280;57790;51.356;-2.906;2022-08-19T04:58:26;101542.88;;;19.32;68.57
70370;BME280;57790;51.356;-2.906;2022-08-19T05:01:28;101546.81;;;19.30;68.29
70370;BME280;57790;51.356;-2.906;2022-08-19T05:04:30;101554.66;;;19.25;67.98
70370;BME280;57790;51.356;-2.906;2022-08-19T05:07:31;101551.50;;;19.21;68.03
70370;BME280;57790;51.356;-2.906;2022-08-19T05:10:35;101553.78;;;19.18;68.05
70370;BME280;57790;51.356;-2.906;2022-08-19T05:13:36;101557.91;;;19.14;68.11
70370;BME280;57790;51.356;-2.906;2022-08-19T05:16:37;101567.19;;;19.11;68.37
70370;BME280;57790;51.356;-2.906;2022-08-19T05:19:37;101574.59;;;19.09;68.22
70370;BME280;57790;51.356;-2.906;2022-08-19T05:22:56;101589.47;;;19.05;68.47
70370;BME280;57790;51.356;-2.906;2022-08-19T05:25:57;101596.28;;;19.01;68.87
70370;BME280;57790;51.356;-2.906;2022-08-19T05:28:57;101599.38;;;18.98;68.86
70370;BME280;57790;51.356;-2.906;2022-08-19T05:31:58;101597.25;;;18.93;69.39
70370;BME280;57790;51.356;-2.906;2022-08-19T05:34:59;101584.00;;;18.92;69.56
70370;BME280;57790;51.356;-2.906;2022-08-19T05:37:59;101591.44;;;18.90;69.88
70370;BME280;57790;51.356;-2.906;2022-08-19T05:41:00;101601.94;;;18.85;69.95
70370;BME280;57790;51.356;-2.906;2022-08-19T05:44:03;101597.59;;;18.84;69.93
70370;BME280;57790;51.356;-2.906;2022-08-19T05:47:07;101594.91;;;18.84;70.07
70370;BME280;57790;51.356;-2.906;2022-08-19T05:50:08;101594.28;;;18.82;70.22
70370;BME280;57790;51.356;-2.906;2022-08-19T05:53:09;101590.78;;;18.81;70.18
70370;BME280;57790;51.356;-2.906;2022-08-19T05:56:12;101604.00;;;18.83;70.45
70370;BME280;57790;51.356;-2.906;2022-08-19T05:59:16;101599.66;;;18.82;70.33
70370;BME280;57790;51.356;-2.906;2022-08-19T06:02:17;101606.69;;;18.83;70.58
70370;BME280;57790;51.356;-2.906;2022-08-19T06:05:17;101612.91;;;18.83;70.59
70370;BME280;57790;51.356;-2.906;2022-08-19T06:08:18;101616.41;;;18.84;70.47
70370;BME280;57790;51.356;-2.906;2022-08-19T06:11:31;101618.72;;;18.87;70.08
70370;BME280;57790;51.356;-2.906;2022-08-19T06:14:35;101622.03;;;18.89;69.65
70370;BME280;57790;51.356;-2.906;2022-08-19T06:17:36;101621.63;;;18.92;68.89
70370;BME280;57790;51.356;-2.906;2022-08-19T06:20:36;101620.59;;;18.93;68.73
70370;BME280;57790;51.356;-2.906;2022-08-19T06:23:36;101618.53;;;18.95;68.63
70370;BME280;57790;51.356;-2.906;2022-08-19T06:26:39;101623.16;;;19.01;68.48
70370;BME280;57790;51.356;-2.906;2022-08-19T06:29:40;101626.06;;;19.06;67.90
70370;BME280;57790;51.356;-2.906;2022-08-19T06:32:42;101629.84;;;19.12;66.43
70370;BME280;57790;51.356;-2.906;2022-08-19T06:35:43;101630.47;;;19.14;66.64
70370;BME280;57790;51.356;-2.906;2022-08-19T06:38:43;101625.94;;;19.14;66.19
70370;BME280;57790;51.356;-2.906;2022-08-19T06:41:47;101631.31;;;19.14;65.82
70370;BME280;57790;51.356;-2.906;2022-08-19T06:44:48;101645.78;;;19.13;64.13
70370;BME280;57790;51.356;-2.906;2022-08-19T06:47:49;101651.78;;;19.15;63.77
70370;BME280;57790;51.356;-2.906;2022-08-19T06:50:49;101652.41;;;19.17;62.95
70370;BME280;57790;51.356;-2.906;2022-08-19T06:53:53;101649.53;;;19.19;62.05
70370;BME280;57790;51.356;-2.906;2022-08-19T06:56:53;101658.22;;;19.21;61.78
70370;BME280;57790;51.356;-2.906;2022-08-19T06:59:54;101654.97;;;19.25;62.06
70370;BME280;57790;51.356;-2.906;2022-08-19T07:02:56;101665.94;;;19.30;62.04
70370;BME280;57790;51.356;-2.906;2022-08-19T07:05:57;101662.03;;;19.33;62.40
70370;BME280;57790;51.356;-2.906;2022-08-19T07:08:59;101659.75;;;19.37;62.08
70370;BME280;57790;51.356;-2.906;2022-08-19T07:11:59;101662.50;;;19.43;61.84
70370;BME280;57790;51.356;-2.906;2022-08-19T07:15:00;101662.50;;;19.43;62.44
70370;BME280;57790;51.356;-2.906;2022-08-19T07:18:00;101664.84;;;19.53;63.63
70370;BME280;57790;51.356;-2.906;2022-08-19T07:21:08;101676.72;;;19.65;62.67
70370;BME280;57790;51.356;-2.906;2022-08-19T07:24:09;101682.16;;;19.78;60.87
70370;BME280;57790;51.356;-2.906;2022-08-19T07:27:10;101678.09;;;19.89;59.48
70370;BME280;57790;51.356;-2.906;2022-08-19T07:30:10;101682.47;;;19.97;58.19
70370;BME280;57790;51.356;-2.906;2022-08-19T07:33:11;101680.63;;;20.04;57.83
70370;BME280;57790;51.356;-2.906;2022-08-19T07:36:14;101679.22;;;20.14;57.23
70370;BME280;57790;51.356;-2.906;2022-08-19T07:39:28;101680.09;;;20.28;56.55
70370;BME280;57790;51.356;-2.906;2022-08-19T07:42:29;101690.25;;;20.39;56.08
70370;BME280;57790;51.356;-2.906;2022-08-19T07:45:29;101678.28;;;20.48;56.00
70370;BME280;57790;51.356;-2.906;2022-08-19T07:48:32;101682.25;;;20.59;54.73
70370;BME280;57790;51.356;-2.906;2022-08-19T07:51:33;101692.84;;;20.74;54.39
70370;BME280;57790;51.356;-2.906;2022-08-19T07:54:36;101693.88;;;20.86;53.73
70370;BME280;57790;51.356;-2.906;2022-08-19T07:57:37;101692.22;;;21.18;54.85
70370;BME280;57790;51.356;-2.906;2022-08-19T08:00:39;101684.56;;;22.00;51.44
70370;BME280;57790;51.356;-2.906;2022-08-19T08:03:39;101694.38;;;22.64;49.06
70370;BME280;57790;51.356;-2.906;2022-08-19T08:06:58;101694.66;;;23.12;48.29
70370;BME280;57790;51.356;-2.906;2022-08-19T08:10:17;101699.22;;;23.55;46.53
70370;BME280;57790;51.356;-2.906;2022-08-19T08:13:17;101694.00;;;23.78;45.49
70370;BME280;57790;51.356;-2.906;2022-08-19T08:16:18;101694.72;;;24.03;43.88
70370;BME280;57790;51.356;-2.906;2022-08-19T08:19:20;101695.81;;;24.32;43.57
70370;BME280;57790;51.356;-2.906;2022-08-19T08:22:22;101693.78;;;24.70;44.13
70370;BME280;57790;51.356;-2.906;2022-08-19T08:25:41;101697.66;;;25.04;42.09
70370;BME280;57790;51.356;-2.906;2022-08-19T08:28:41;101708.66;;;25.32;40.98
70370;BME280;57790;51.356;-2.906;2022-08-19T08:31:43;101707.53;;;25.57;41.25
70370;BME280;57790;51.356;-2.906;2022-08-19T08:34:44;101704.13;;;25.73;39.40
70370;BME280;57790;51.356;-2.906;2022-08-19T08:37:46;101715.16;;;26.06;39.64
70370;BME280;57790;51.356;-2.906;2022-08-19T08:40:50;101712.31;;;26.42;39.71
70370;BME280;57790;51.356;-2.906;2022-08-19T08:43:54;101710.56;;;26.81;39.17
70370;BME280;57790;51.356;-2.906;2022-08-19T08:46:58;101708.41;;;27.16;36.75
70370;BME280;57790;51.356;-2.906;2022-08-19T08:50:38;101710.00;;;27.68;36.25
70370;BME280;57790;51.356;-2.906;2022-08-19T08:53:40;101712.63;;;28.06;34.96
70370;BME280;57790;51.356;-2.906;2022-08-19T08:56:43;101713.88;;;28.21;34.02
70370;BME280;57790;51.356;-2.906;2022-08-19T08:59:47;101714.44;;;28.44;32.66
70370;BME280;57790;51.356;-2.906;2022-08-19T09:02:53;101709.34;;;28.80;32.31
70370;BME280;57790;51.356;-2.906;2022-08-19T09:06:01;101715.06;;;29.16;32.28
70370;BME280;57790;51.356;-2.906;2022-08-19T09:15:51;101731.53;;;28.89;32.42
70370;BME280;57790;51.356;-2.906;2022-08-19T09:18:55;101729.34;;;28.91;32.08
70370;BME280;57790;51.356;-2.906;2022-08-19T09:21:57;101739.81;;;27.96;33.54
70370;BME280;57790;51.356;-2.906;2022-08-19T09:25:00;101737.59;;;27.54;34.46
70370;BME280;57790;51.356;-2.906;2022-08-19T09:28:01;101745.38;;;26.95;35.82
70370;BME280;57790;51.356;-2.906;2022-08-19T09:31:05;101751.59;;;26.34;36.90
70370;BME280;57790;51.356;-2.906;2022-08-19T09:34:05;101749.13;;;25.92;37.67
70370;BME280;57790;51.356;-2.906;2022-08-19T09:37:06;101756.19;;;25.58;38.56
70370;BME280;57790;51.356;-2.906;2022-08-19T09:40:07;101751.38;;;25.25;39.25
70370;BME280;57790;51.356;-2.906;2022-08-19T09:43:07;101756.09;;;24.88;40.04
70370;BME280;57790;51.356;-2.906;2022-08-19T09:46:08;101750.28;;;24.61;41.01
70370;BME280;57790;51.356;-2.906;2022-08-19T09:49:09;101754.47;;;24.45;40.70
70370;BME280;57790;51.356;-2.906;2022-08-19T09:52:11;101767.38;;;24.31;41.30
70370;BME280;57790;51.356;-2.906;2022-08-19T09:55:11;101765.00;;;23.98;42.33
70370;BME280;57790;51.356;-2.906;2022-08-19T09:58:12;101771.75;;;23.71;43.66
70370;BME280;57790;51.356;-2.906;2022-08-19T10:01:22;101785.03;;;23.54;44.87
70370;BME280;57790;51.356;-2.906;2022-08-19T10:04:23;101774.16;;;23.36;45.89
70370;BME280;57790;51.356;-2.906;2022-08-19T10:07:43;101772.44;;;23.41;47.65
70370;BME280;57790;51.356;-2.906;2022-08-19T10:10:44;101757.03;;;23.67;44.82
70370;BME280;57790;51.356;-2.906;2022-08-19T10:13:46;101753.41;;;24.58;43.80
70370;BME280;57790;51.356;-2.906;2022-08-19T10:16:46;101759.88;;;25.40;41.35
70370;BME280;57790;51.356;-2.906;2022-08-19T10:19:47;101762.22;;;25.84;42.33
70370;BME280;57790;51.356;-2.906;2022-08-19T10:22:48;101751.38;;;26.81;39.92
70370;BME280;57790;51.356;-2.906;2022-08-19T10:25:48;101747.75;;;27.42;38.80
70370;BME280;57790;51.356;-2.906;2022-08-19T10:28:50;101747.16;;;28.39;35.20
70370;BME280;57790;51.356;-2.906;2022-08-19T10:31:50;101750.38;;;28.90;34.71
70370;BME280;57790;51.356;-2.906;2022-08-19T10:34:50;101751.38;;;30.01;31.97
70370;BME280;57790;51.356;-2.906;2022-08-19T10:37:52;101751.34;;;30.84;30.81
70370;BME280;57790;51.356;-2.906;2022-08-19T10:40:52;101758.47;;;31.25;29.24
70370;BME280;57790;51.356;-2.906;2022-08-19T10:43:57;101748.22;;;31.77;28.55
70370;BME280;57790;51.356;-2.906;2022-08-19T10:46:58;101748.41;;;32.01;28.03
70370;BME280;57790;51.356;-2.906;2022-08-19T10:49:59;101748.00;;;32.22;27.59
70370;BME280;57790;51.356;-2.906;2022-08-19T10:53:17;101751.09;;;32.60;27.30
70370;BME280;57790;51.356;-2.906;2022-08-19T10:56:20;101747.19;;;32.66;27.18
70370;BME280;57790;51.356;-2.906;2022-08-19T10:59:38;101743.09;;;33.03;26.64
70370;BME280;57790;51.356;-2.906;2022-08-19T11:02:40;101735.16;;;33.25;26.74
70370;BME280;57790;51.356;-2.906;2022-08-19T11:05:41;101737.03;;;33.59;26.08
70370;BME280;57790;51.356;-2.906;2022-08-19T11:08:42;101745.53;;;33.86;25.99
70370;BME280;57790;51.356;-2.906;2022-08-19T11:11:45;101746.97;;;34.21;25.71
70370;BME280;57790;51.356;-2.906;2022-08-19T11:14:47;101748.25;;;34.10;25.95
70370;BME280;57790;51.356;-2.906;2022-08-19T11:17:51;101754.44;;;34.40;25.63
70370;BME280;57790;51.356;-2.906;2022-08-19T11:20:52;101745.19;;;34.68;24.68
70370;BME280;57790;51.356;-2.906;2022-08-19T11:23:55;101746.50;;;34.38;24.87
70370;BME280;57790;51.356;-2.906;2022-08-19T11:27:04;101736.88;;;34.73;24.74
70370;BME280;57790;51.356;-2.906;2022-08-19T11:30:06;101748.81;;;35.15;24.41
70370;BME280;57790;51.356;-2.906;2022-08-19T11:33:07;101748.03;;;34.63;24.93
70370;BME280;57790;51.356;-2.906;2022-08-19T11:36:10;101736.22;;;34.95;24.36
70370;BME280;57790;51.356;-2.906;2022-08-19T11:39:13;101747.28;;;34.57;24.88
70370;BME280;57790;51.356;-2.906;2022-08-19T11:42:14;101753.97;;;33.71;24.68
70370;BME280;57790;51.356;-2.906;2022-08-19T11:45:33;101738.84;;;33.92;24.31
70370;BME280;57790;51.356;-2.906;2022-08-19T11:48:34;101736.19;;;34.63;23.15
70370;BME280;57790;51.356;-2.906;2022-08-19T11:51:35;101745.06;;;34.22;24.09
70370;BME280;57790;51.356;-2.906;2022-08-19T11:54:35;101738.84;;;34.11;23.90
70370;BME280;57790;51.356;-2.906;2022-08-19T11:57:36;101753.91;;;34.56;23.26
70370;BME280;57790;51.356;-2.906;2022-08-19T12:00:38;101746.47;;;34.57;22.65
70370;BME280;57790;51.356;-2.906;2022-08-19T12:03:38;101743.31;;;35.01;22.83
70370;BME280;57790;51.356;-2.906;2022-08-19T12:06:40;101743.22;;;33.69;24.44
70370;BME280;57790;51.356;-2.906;2022-08-19T12:09:41;101751.53;;;34.69;23.28
70370;BME280;57790;51.356;-2.906;2022-08-19T12:12:41;101770.03;;;34.87;23.12
70370;BME280;57790;51.356;-2.906;2022-08-19T12:15:46;101747.09;;;33.92;24.05
70370;BME280;57790;51.356;-2.906;2022-08-19T12:18:47;101759.94;;;34.21;23.56
70370;BME280;57790;51.356;-2.906;2022-08-19T12:21:48;101761.59;;;34.59;23.13
70370;BME280;57790;51.356;-2.906;2022-08-19T12:24:49;101762.91;;;35.13;22.39
70370;BME280;57790;51.356;-2.906;2022-08-19T12:27:52;101753.41;;;35.38;22.42
70370;BME280;57790;51.356;-2.906;2022-08-19T12:30:52;101760.34;;;35.77;22.58
70370;BME280;57790;51.356;-2.906;2022-08-19T12:33:53;101762.00;;;35.78;22.74
70370;BME280;57790;51.356;-2.906;2022-08-19T12:36:53;101759.53;;;35.76;22.70
70370;BME280;57790;51.356;-2.906;2022-08-19T12:39:53;101761.50;;;35.76;21.94
70370;BME280;57790;51.356;-2.906;2022-08-19T12:42:54;101755.34;;;35.79;22.05
70370;BME280;57790;51.356;-2.906;2022-08-19T12:45:55;101761.59;;;35.85;21.82
70370;BME280;57790;51.356;-2.906;2022-08-19T12:48:56;101750.94;;;36.05;22.08
70370;BME280;57790;51.356;-2.906;2022-08-19T12:51:57;101755.16;;;35.75;21.64
70370;BME280;57790;51.356;-2.906;2022-08-19T12:54:58;101750.91;;;36.19;21.45
70370;BME280;57790;51.356;-2.906;2022-08-19T12:57:58;101756.56;;;36.50;21.78
70370;BME280;57790;51.356;-2.906;2022-08-19T13:01:14;101750.34;;;36.67;22.05
70370;BME280;57790;51.356;-2.906;2022-08-19T13:04:14;101745.97;;;36.88;21.00
70370;BME280;57790;51.356;-2.906;2022-08-19T13:07:16;101737.91;;;36.78;21.49
70370;BME280;57790;51.356;-2.906;2022-08-19T13:10:19;101748.53;;;36.62;21.14
70370;BME280;57790;51.356;-2.906;2022-08-19T13:13:19;101746.91;;;36.61;21.41
70370;BME280;57790;51.356;-2.906;2022-08-19T13:16:20;101745.41;;;36.78;20.81
70370;BME280;57790;51.356;-2.906;2022-08-19T13:19:21;101748.09;;;36.69;20.57
70370;BME280;57790;51.356;-2.906;2022-08-19T13:22:23;101751.91;;;36.37;20.44
70370;BME280;57790;51.356;-2.906;2022-08-19T13:25:25;101746.44;;;36.10;20.86
70370;BME280;57790;51.356;-2.906;2022-08-19T13:28:25;101750.81;;;36.11;20.54
70370;BME280;57790;51.356;-2.906;2022-08-19T13:31:30;101766.88;;;35.81;20.38
70370;BME280;57790;51.356;-2.906;2022-08-19T13:34:49;101750.13;;;36.05;21.05
70370;BME280;57790;51.356;-2.906;2022-08-19T13:37:49;101745.00;;;36.12;20.69
70370;BME280;57790;51.356;-2.906;2022-08-19T13:40:51;101751.63;;;36.11;20.86
70370;BME280;57790;51.356;-2.906;2022-08-19T13:43:52;101750.72;;;36.02;21.27
70370;BME280;57790;51.356;-2.906;2022-08-19T13:46:53;101737.78;;;36.02;21.34
70370;BME280;57790;51.356;-2.906;2022-08-19T13:49:53;101735.22;;;35.92;21.26
70370;BME280;57790;51.356;-2.906;2022-08-19T13:52:55;101738.78;;;35.93;21.38
70370;BME280;57790;51.356;-2.906;2022-08-19T13:55:55;101747.25;;;35.55;22.13
70370;BME280;57790;51.356;-2.906;2022-08-19T13:58:57;101737.47;;;35.63;21.97
70370;BME280;57790;51.356;-2.906;2022-08-19T14:01:59;101745.81;;;35.44;22.61
70370;BME280;57790;51.356;-2.906;2022-08-19T14:04:59;101753.41;;;34.73;23.29
70370;BME280;57790;51.356;-2.906;2022-08-19T14:08:00;101750.59;;;34.59;24.03
70370;BME280;57790;51.356;-2.906;2022-08-19T14:11:00;101744.44;;;34.81;25.10
70370;BME280;57790;51.356;-2.906;2022-08-19T14:14:01;101749.63;;;34.50;25.19
70370;BME280;57790;51.356;-2.906;2022-08-19T14:17:01;101750.09;;;33.72;26.53
70370;BME280;57790;51.356;-2.906;2022-08-19T14:20:04;101748.56;;;33.32;27.04
70370;BME280;57790;51.356;-2.906;2022-08-19T14:23:09;101741.06;;;32.79;26.51
70370;BME280;57790;51.356;-2.906;2022-08-19T14:26:13;101743.66;;;32.11;28.54
70370;BME280;57790;51.356;-2.906;2022-08-19T14:29:14;101751.25;;;31.75;29.52
70370;BME280;57790;51.356;-2.906;2022-08-19T14:32:14;101744.75;;;31.41;30.13
70370;BME280;57790;51.356;-2.906;2022-08-19T14:35:15;101748.34;;;31.26;31.01
70370;BME280;57790;51.356;-2.906;2022-08-19T14:38:17;101759.81;;;31.18;31.15
70370;BME280;57790;51.356;-2.906;2022-08-19T14:41:22;101753.25;;;30.93;30.17
70370;BME280;57790;51.356;-2.906;2022-08-19T14:44:22;101768.16;;;30.19;31.41
70370;BME280;57790;51.356;-2.906;2022-08-19T14:47:23;101764.09;;;30.27;31.00
70370;BME280;57790;51.356;-2.906;2022-08-19T14:50:23;101766.13;;;29.95;32.67
70370;BME280;57790;51.356;-2.906;2022-08-19T14:53:24;101763.31;;;29.79;33.43
70370;BME280;57790;51.356;-2.906;2022-08-19T14:56:28;101769.31;;;29.76;33.23
70370;BME280;57790;51.356;-2.906;2022-08-19T14:59:29;101772.03;;;29.71;32.16
70370;BME280;57790;51.356;-2.906;2022-08-19T15:02:29;101760.09;;;29.45;32.38
70370;BME280;57790;51.356;-2.906;2022-08-19T15:05:30;101767.41;;;29.77;32.59
70370;BME280;57790;51.356;-2.906;2022-08-19T15:08:31;101770.19;;;29.87;33.12
70370;BME280;57790;51.356;-2.906;2022-08-19T15:11:32;101763.91;;;29.86;33.47
70370;BME280;57790;51.356;-2.906;2022-08-19T15:14:35;101779.53;;;29.96;32.65
70370;BME280;57790;51.356;-2.906;2022-08-19T15:17:38;101776.00;;;29.96;33.77
70370;BME280;57790;51.356;-2.906;2022-08-19T15:20:40;101777.56;;;29.86;33.85
70370;BME280;57790;51.356;-2.906;2022-08-19T15:23:41;101776.59;;;29.55;34.72
70370;BME280;57790;51.356;-2.906;2022-08-19T15:26:41;101773.16;;;29.01;33.75
70370;BME280;57790;51.356;-2.906;2022-08-19T15:29:42;101770.88;;;28.93;33.93
70370;BME280;57790;51.356;-2.906;2022-08-19T15:32:43;101780.56;;;28.52;35.12
70370;BME280;57790;51.356;-2.906;2022-08-19T15:35:44;101789.78;;;28.45;35.75
70370;BME280;57790;51.356;-2.906;2022-08-19T15:38:44;101790.06;;;28.49;35.36
70370;BME280;57790;51.356;-2.906;2022-08-19T15:41:46;101784.63;;;28.49;35.09
70370;BME280;57790;51.356;-2.906;2022-08-19T15:44:47;101793.72;;;28.33;34.83
70370;BME280;57790;51.356;-2.906;2022-08-19T15:47:47;101778.34;;;28.05;35.59